createdAt,value
2018-12-08T00:00:46.089Z,100081.63
2018-12-08T00:03:16.433Z,100080.55
2018-12-08T00:05:45.924Z,100080.22
2018-12-08T00:08:15.739Z,100077.86
2018-12-08T00:10:45.423Z,100079.23
2018-12-08T00:13:14.974Z,100072.48
2018-12-08T00:15:44.971Z,100068.75
2018-12-08T00:18:14.222Z,100080.70
2018-12-08T00:20:43.463Z,100078.43
2018-12-08T00:23:13.374Z,100084.13
2018-12-08T00:25:42.719Z,100084.06
2018-12-08T00:28:12.128Z,100089.97
2018-12-08T00:30:52.311Z,100092.33
2018-12-08T00:33:21.779Z,100087.09
2018-12-08T00:35:50.989Z,100080.81
2018-12-08T00:38:22.713Z,100080.87
2018-12-08T00:40:51.941Z,100077.22
2018-12-08T00:43:21.278Z,100074.34
2018-12-08T00:45:50.518Z,100080.04
2018-12-08T00:48:19.819Z,100086.22
2018-12-08T00:50:49.077Z,100080.55
2018-12-08T00:53:18.500Z,100091.39
2018-12-08T00:55:47.922Z,100086.98
2018-12-08T00:58:17.240Z,100090.14
2018-12-08T01:00:46.655Z,100093.41
2018-12-08T01:03:16.096Z,100101.02
2018-12-08T01:05:45.450Z,100100.02
2018-12-08T01:08:16.537Z,100092.64
2018-12-08T01:10:46.504Z,100112.44
2018-12-08T01:13:16.797Z,100107.77
2018-12-08T01:15:46.250Z,100106.93
2018-12-08T01:18:16.829Z,100104.09
2018-12-08T01:20:46.361Z,100099.33
2018-12-08T01:23:16.330Z,100100.02
2018-12-08T01:25:45.793Z,100099.97
2018-12-08T01:28:15.292Z,100103.70
2018-12-08T01:30:44.764Z,100108.53
2018-12-08T01:33:14.253Z,100107.95
2018-12-08T01:35:43.527Z,100120.02
2018-12-08T01:38:12.846Z,100114.04
2018-12-08T01:40:43.195Z,100114.65
2018-12-08T01:43:14.119Z,100118.65
2018-12-08T01:45:43.519Z,100121.97
2018-12-08T01:48:12.748Z,100119.34
2018-12-08T01:50:42.132Z,100116.59
2018-12-08T01:53:11.429Z,100110.63
2018-12-08T01:55:40.998Z,100115.95
2018-12-08T01:58:10.461Z,100114.04
2018-12-08T02:00:39.845Z,100106.11
2018-12-08T02:03:09.316Z,100100.80
2018-12-08T02:05:39.084Z,100108.86
2018-12-08T02:08:08.942Z,100102.30
2018-12-08T02:10:38.498Z,100108.73
2018-12-08T02:13:25.823Z,100106.05
2018-12-08T02:15:58.075Z,100111.36
2018-12-08T02:18:27.648Z,100099.81
2018-12-08T02:20:57.097Z,100099.53
2018-12-08T02:23:26.524Z,100094.54
2018-12-08T02:25:55.886Z,100100.84
2018-12-08T02:28:25.130Z,100091.13
2018-12-08T02:30:54.891Z,100090.48
2018-12-08T02:33:24.301Z,100079.74
2018-12-08T02:35:53.637Z,100085.66
2018-12-08T02:38:22.978Z,100080.63
2018-12-08T02:40:52.379Z,100071.17
2018-12-08T02:43:21.639Z,100073.47
2018-12-08T02:45:50.836Z,100066.27
2018-12-08T02:48:37.431Z,100070.08
2018-12-08T02:51:09.820Z,100080.50
2018-12-08T02:53:39.161Z,100075.06
2018-12-08T02:56:08.364Z,100081.00
2018-12-08T02:58:37.867Z,100084.03
2018-12-08T03:01:07.287Z,100068.91
2018-12-08T03:03:38.071Z,100065.28
2018-12-08T03:06:07.556Z,100070.34
2018-12-08T03:08:38.069Z,100062.48
2018-12-08T03:11:08.364Z,100060.75
2018-12-08T03:13:38.202Z,100053.55
2018-12-08T03:16:07.521Z,100055.72
2018-12-08T03:18:36.885Z,100045.75
2018-12-08T03:21:06.342Z,100032.30
2018-12-08T03:23:35.682Z,100027.05
2018-12-08T03:26:05.070Z,100035.27
2018-12-08T03:28:34.491Z,100023.53
2018-12-08T03:31:03.758Z,100017.48
2018-12-08T03:33:33.033Z,100016.56
2018-12-08T03:36:02.411Z,100022.84
2018-12-08T03:38:32.557Z,100013.59
2018-12-08T03:41:03.990Z,100026.09
2018-12-08T03:43:33.390Z,100027.44
2018-12-08T03:46:04.093Z,100018.39
2018-12-08T03:48:33.415Z,100022.19
2018-12-08T03:51:03.625Z,100021.25
2018-12-08T03:53:33.483Z,100016.73
2018-12-08T03:56:03.300Z,100019.94
2018-12-08T03:58:33.069Z,100029.37
2018-12-08T04:01:03.075Z,100017.69
2018-12-08T04:03:32.532Z,100025.73
2018-12-08T04:06:02.422Z,100020.83
2018-12-08T04:08:31.747Z,100012.33
2018-12-08T04:11:00.982Z,100007.27
2018-12-08T04:13:30.414Z,100017.05
2018-12-08T04:16:01.580Z,100003.48
2018-12-08T04:18:34.570Z,100005.58
2018-12-08T04:21:04.056Z,100006.75
2018-12-08T04:23:33.587Z,100005.96
2018-12-08T04:26:03.566Z,100004.09
2018-12-08T04:28:32.993Z,100003.08
2018-12-08T04:31:02.363Z,100001.97
2018-12-08T04:33:34.042Z,99993.08
2018-12-08T04:36:03.385Z,100003.13
2018-12-08T04:38:33.296Z,99994.20
2018-12-08T04:41:02.691Z,99981.79
2018-12-08T04:43:32.073Z,99985.27
2018-12-08T04:46:01.334Z,100007.68
2018-12-08T04:48:30.881Z,99998.41
2018-12-08T04:51:00.731Z,99997.16
2018-12-08T04:53:30.242Z,100003.80
2018-12-08T04:55:59.719Z,99984.90
2018-12-08T04:58:29.307Z,99990.27
2018-12-08T05:00:59.852Z,99986.21
2018-12-08T05:03:29.964Z,99989.14
2018-12-08T05:06:00.539Z,99988.28
2018-12-08T05:08:31.279Z,99993.16
2018-12-08T05:11:00.774Z,99990.47
2018-12-08T05:13:31.349Z,99975.12
2018-12-08T05:16:00.896Z,99975.65
2018-12-08T05:18:31.325Z,99976.66
2018-12-08T05:21:00.840Z,99972.80
2018-12-08T05:23:30.356Z,99980.94
2018-12-08T05:26:00.420Z,99972.65
2018-12-08T05:28:29.888Z,99966.09
2018-12-08T05:30:59.342Z,99970.73
2018-12-08T05:33:28.830Z,99963.53
2018-12-08T05:35:58.300Z,99961.47
2018-12-08T05:38:28.240Z,99958.92
2018-12-08T05:40:58.770Z,99959.06
2018-12-08T05:43:29.486Z,99965.86
2018-12-08T05:45:59.021Z,99959.37
2018-12-08T05:48:28.753Z,99968.71
2018-12-08T05:50:58.220Z,99968.64
2018-12-08T05:53:28.854Z,99971.91
2018-12-08T05:55:58.203Z,99976.44
2018-12-08T05:58:36.393Z,99973.59
2018-12-08T06:01:06.313Z,99975.99
2018-12-08T06:03:35.810Z,99974.41
2018-12-08T06:06:05.264Z,99980.12
2018-12-08T06:08:34.588Z,99972.91
2018-12-08T06:11:04.383Z,99967.95
2018-12-08T06:13:34.020Z,99974.04
2018-12-08T06:16:04.214Z,99971.11
2018-12-08T06:18:34.702Z,99971.03
2018-12-08T06:21:04.257Z,99963.30
2018-12-08T06:23:33.741Z,99970.77
2018-12-08T06:26:13.151Z,99956.14
2018-12-08T06:28:45.144Z,99954.04
2018-12-08T06:31:14.595Z,99949.58
2018-12-08T06:33:44.033Z,99953.21
2018-12-08T06:36:13.327Z,99949.88
2018-12-08T06:38:42.623Z,99939.45
2018-12-08T06:41:13.017Z,99942.52
2018-12-08T06:43:42.586Z,99949.62
2018-12-08T06:46:14.848Z,99951.56
2018-12-08T06:48:44.856Z,99948.53
2018-12-08T06:51:14.194Z,99947.92
2018-12-08T06:53:43.769Z,99939.41
2018-12-08T06:56:13.284Z,99935.73
2018-12-08T06:58:44.198Z,99923.69
2018-12-08T07:01:13.751Z,99950.41
2018-12-08T07:03:43.064Z,99926.47
2018-12-08T07:06:13.472Z,99929.54
2018-12-08T07:08:43.038Z,99930.22
2018-12-08T07:11:12.319Z,99934.01
2018-12-08T07:13:42.270Z,99940.05
2018-12-08T07:16:11.744Z,99932.31
2018-12-08T07:18:41.211Z,99930.22
2018-12-08T07:21:10.476Z,99936.66
2018-12-08T07:23:41.071Z,99924.02
2018-12-08T07:26:11.677Z,99926.56
2018-12-08T07:28:41.703Z,99914.18
2018-12-08T07:31:11.017Z,99916.32
2018-12-08T07:33:41.401Z,99934.83
2018-12-08T07:36:10.886Z,99923.45
2018-12-08T07:38:40.839Z,99918.69
2018-12-08T07:41:15.585Z,99922.78
2018-12-08T07:43:45.565Z,99921.70
2018-12-08T07:46:18.674Z,99914.23
2018-12-08T07:48:48.584Z,99925.27
2018-12-08T07:51:18.272Z,99925.04
2018-12-08T07:53:48.092Z,99915.02
2018-12-08T07:56:18.438Z,99916.34
2018-12-08T07:58:48.100Z,99917.50
2018-12-08T08:01:17.735Z,99907.45
2018-12-08T08:03:47.298Z,99906.48
2018-12-08T08:06:16.820Z,99896.69
2018-12-08T08:08:46.131Z,99897.84
2018-12-08T08:11:16.394Z,99906.52
2018-12-08T08:13:46.651Z,99916.56
2018-12-08T08:16:16.051Z,99909.14
2018-12-08T08:18:46.430Z,99904.07
2018-12-08T08:21:15.927Z,99896.48
2018-12-08T08:23:46.401Z,99902.61
2018-12-08T08:26:16.026Z,99893.56
2018-12-08T08:28:45.354Z,99890.78
2018-12-08T08:31:14.773Z,99884.06
2018-12-08T08:33:44.451Z,99894.03
2018-12-08T08:36:14.374Z,99901.13
2018-12-08T08:38:44.198Z,99885.00
2018-12-08T08:41:13.545Z,99887.41
2018-12-08T08:43:43.944Z,99890.86
2018-12-08T08:46:15.221Z,99888.16
2018-12-08T08:48:44.666Z,99879.37
2018-12-08T08:51:14.021Z,99884.22
2018-12-08T08:53:43.673Z,99878.43
2018-12-08T08:56:13.287Z,99883.45
2018-12-08T08:58:43.034Z,99885.63
2018-12-08T09:01:14.249Z,99866.71
2018-12-08T09:03:43.583Z,99872.34
2018-12-08T09:06:13.223Z,99873.95
2018-12-08T09:08:43.586Z,99873.10
2018-12-08T09:11:12.903Z,99880.91
2018-12-08T09:13:42.377Z,99868.39
2018-12-08T09:16:12.124Z,99857.02
2018-12-08T09:18:42.019Z,99865.45
2018-12-08T09:21:12.301Z,99857.66
2018-12-08T09:23:45.526Z,99871.01
2018-12-08T09:26:15.149Z,99866.53
2018-12-08T09:28:45.687Z,99867.89
2018-12-08T09:31:22.763Z,99876.56
2018-12-08T09:33:57.905Z,99862.39
2018-12-08T09:36:27.414Z,99874.31
2018-12-08T09:38:57.192Z,99878.28
2018-12-08T09:41:26.556Z,99884.45
2018-12-08T09:43:57.623Z,99877.95
2018-12-08T09:46:26.987Z,99869.31
2018-12-08T09:48:57.691Z,99870.69
2018-12-08T09:51:27.284Z,99868.05
2018-12-08T09:53:57.615Z,99871.30
2018-12-08T09:59:03.673Z,99860.70
2018-12-08T10:01:33.174Z,99861.86
2018-12-08T10:04:02.609Z,99864.53
2018-12-08T10:06:31.909Z,99867.00
2018-12-08T10:09:01.881Z,99859.11
2018-12-08T10:11:31.239Z,99859.44
2018-12-08T10:14:01.579Z,99855.28
2018-12-08T10:16:31.639Z,99863.34
2018-12-08T10:19:00.970Z,99854.34
2018-12-08T10:21:30.345Z,99868.52
2018-12-08T10:24:00.168Z,99858.86
2018-12-08T10:26:29.459Z,99865.43
2018-12-08T10:28:58.982Z,99865.35
2018-12-08T10:31:28.223Z,99865.72
2018-12-08T10:33:57.590Z,99864.78
2018-12-08T10:36:26.911Z,99867.73
2018-12-08T10:38:56.424Z,99862.61
2018-12-08T10:41:26.174Z,99859.97
2018-12-08T10:43:56.101Z,99868.77
2018-12-08T10:46:25.837Z,99871.03
2018-12-08T10:48:55.611Z,99863.30
2018-12-08T10:51:24.842Z,99862.81
2018-12-08T10:53:55.221Z,99866.50
2018-12-08T10:56:24.598Z,99879.27
2018-12-08T10:58:54.230Z,99872.94
2018-12-08T11:01:29.315Z,99875.48
2018-12-08T11:03:58.891Z,99867.46
2018-12-08T11:06:28.235Z,99874.07
2018-12-08T11:08:57.877Z,99868.92
2018-12-08T11:11:27.160Z,99867.06
2018-12-08T11:13:56.451Z,99879.97
2018-12-08T11:16:25.760Z,99878.89
2018-12-08T11:18:55.189Z,99872.14
2018-12-08T11:21:24.548Z,99876.91
2018-12-08T11:23:54.307Z,99869.51
2018-12-08T11:26:24.895Z,99877.48
2018-12-08T11:28:54.246Z,99875.14
2018-12-08T11:31:23.972Z,99871.91
2018-12-08T11:33:53.446Z,99874.17
2018-12-08T11:36:22.749Z,99884.98
2018-12-08T11:38:52.113Z,99889.63
2018-12-08T11:41:21.411Z,99877.69
2018-12-08T11:43:50.796Z,99877.09
2018-12-08T11:46:20.113Z,99893.63
2018-12-08T11:48:49.515Z,99884.70
2018-12-08T11:51:18.870Z,99884.23
2018-12-08T11:53:48.179Z,99879.17
2018-12-08T11:56:17.471Z,99887.07
2018-12-08T11:58:46.798Z,99883.81
2018-12-08T12:01:16.159Z,99885.33
2018-12-08T12:03:45.612Z,99883.75
2018-12-08T12:06:14.888Z,99890.91
2018-12-08T12:08:44.449Z,99870.36
2018-12-08T12:11:14.505Z,99887.56
2018-12-08T12:13:43.991Z,99886.94
2018-12-08T12:16:14.397Z,99884.98
2018-12-08T12:18:43.788Z,99879.46
2018-12-08T12:21:14.017Z,99874.97
2018-12-08T12:23:43.475Z,99868.38
2018-12-08T12:26:12.774Z,99868.38
2018-12-08T12:28:42.088Z,99862.08
2018-12-08T12:31:11.885Z,99864.20
2018-12-08T12:33:41.133Z,99878.69
2018-12-08T12:36:11.100Z,99861.89
2018-12-08T12:38:40.551Z,99870.70
2018-12-08T12:41:09.895Z,99868.92
2018-12-08T12:43:39.308Z,99867.33
2018-12-08T12:46:08.721Z,99857.63
2018-12-08T12:48:38.270Z,99866.89
2018-12-08T12:51:07.810Z,99878.84
2018-12-08T12:53:37.201Z,99866.08
2018-12-08T12:56:06.695Z,99877.44
2018-12-08T12:58:36.107Z,99869.00
2018-12-08T13:01:05.583Z,99867.40
2018-12-08T13:03:34.922Z,99861.86
2018-12-08T13:06:04.442Z,99868.27
2018-12-08T13:08:34.609Z,99874.45
2018-12-08T13:11:04.045Z,99869.28
2018-12-08T13:13:34.351Z,99876.00
2018-12-08T13:16:03.768Z,99870.33
2018-12-08T13:18:34.944Z,99870.81
2018-12-08T13:21:05.093Z,99869.37
2018-12-08T13:23:39.700Z,99873.58
2018-12-08T13:26:09.165Z,99866.91
2018-12-08T13:28:38.911Z,99866.36
2018-12-08T13:31:09.456Z,99862.39
2018-12-08T13:33:39.121Z,99862.94
2018-12-08T13:36:11.332Z,99862.59
2018-12-08T13:38:41.689Z,99860.77
2018-12-08T13:41:11.444Z,99857.19
2018-12-08T13:43:43.486Z,99861.27
2018-12-08T13:46:12.987Z,99856.46
2018-12-08T13:48:43.309Z,99854.77
2018-12-08T13:51:13.922Z,99853.28
2018-12-08T13:53:43.850Z,99854.70
2018-12-08T13:56:13.477Z,99855.65
2018-12-08T13:58:43.285Z,99843.52
2018-12-08T14:01:13.318Z,99851.70
2018-12-08T14:03:44.895Z,99842.75
2018-12-08T14:06:15.061Z,99842.48
2018-12-08T14:08:44.363Z,99835.89
2018-12-08T14:11:13.667Z,99845.80
2018-12-08T14:13:43.551Z,99844.20
2018-12-08T14:16:13.185Z,99843.94
2018-12-08T14:18:43.868Z,99839.31
2018-12-08T14:21:13.735Z,99835.67
2018-12-08T14:23:43.284Z,99838.58
2018-12-08T14:26:12.840Z,99828.99
2018-12-08T14:28:43.285Z,99839.53
2018-12-08T14:31:12.883Z,99842.44
2018-12-08T14:33:43.550Z,99845.53
2018-12-08T14:36:13.584Z,99843.67
2018-12-08T14:38:43.870Z,99843.57
2018-12-08T14:41:13.425Z,99849.48
2018-12-08T14:43:50.258Z,99837.25
2018-12-08T14:46:20.117Z,99828.41
2018-12-08T14:48:49.576Z,99839.48
2018-12-08T14:51:22.471Z,99840.67
2018-12-08T14:54:02.161Z,99837.62
2018-12-08T14:56:33.370Z,99835.58
2018-12-08T14:59:02.934Z,99835.95
2018-12-08T15:01:33.592Z,99823.05
2018-12-08T15:04:03.083Z,99820.23
2018-12-08T15:06:32.809Z,99825.50
2018-12-08T15:09:02.204Z,99821.31
2018-12-08T15:11:35.927Z,99820.17
2018-12-08T15:14:05.733Z,99818.00
2018-12-08T15:16:38.782Z,99812.09
2018-12-08T15:19:08.427Z,99814.91
2018-12-08T15:21:38.448Z,99815.82
2018-12-08T15:24:07.953Z,99808.87
2018-12-08T15:26:38.431Z,99821.13
2018-12-08T15:29:09.059Z,99806.63
2018-12-08T15:31:40.908Z,99807.49
2018-12-08T15:34:10.595Z,99816.04
2018-12-08T15:36:40.195Z,99804.55
2018-12-08T15:39:09.971Z,99802.22
2018-12-08T15:41:40.420Z,99797.95
2018-12-08T15:44:11.689Z,99805.50
2018-12-08T15:46:41.927Z,99802.31
2018-12-08T15:49:12.294Z,99802.49
2018-12-08T15:51:45.374Z,99794.98
2018-12-08T15:54:17.046Z,99798.08
2018-12-08T15:56:46.506Z,99789.63
2018-12-08T15:59:17.664Z,99789.31
2018-12-08T16:01:46.967Z,99781.96
2018-12-08T16:04:16.893Z,99768.78
2018-12-08T16:06:47.745Z,99775.95
2018-12-08T16:09:19.426Z,99770.50
2018-12-08T16:11:48.811Z,99764.09
2018-12-08T16:14:18.371Z,99757.59
2018-12-08T16:16:48.424Z,99745.83
2018-12-08T16:19:18.043Z,99744.33
2018-12-08T16:21:47.322Z,99740.38
2018-12-08T16:24:16.762Z,99734.34
2018-12-08T16:26:46.234Z,99727.85
2018-12-08T16:29:15.674Z,99732.08
2018-12-08T16:31:45.079Z,99731.89
2018-12-08T16:34:14.446Z,99727.17
2018-12-08T16:36:43.644Z,99724.73
2018-12-08T16:39:12.867Z,99717.12
2018-12-08T16:41:42.108Z,99714.30
2018-12-08T16:44:11.455Z,99710.81
2018-12-08T16:46:40.863Z,99701.78
2018-12-08T16:49:10.308Z,99700.65
2018-12-08T16:51:40.019Z,99697.53
2018-12-08T16:54:09.254Z,99694.63
2018-12-08T16:56:38.464Z,99690.27
2018-12-08T16:59:07.879Z,99681.55
2018-12-08T17:01:37.573Z,99677.29
2018-12-08T17:04:06.831Z,99679.74
2018-12-08T17:06:36.034Z,99680.50
2018-12-08T17:09:06.766Z,99665.83
2018-12-08T17:11:36.833Z,99655.84
2018-12-08T17:14:06.470Z,99667.33
2018-12-08T17:16:35.954Z,99660.38
2018-12-08T17:19:06.675Z,99654.17
2018-12-08T17:21:37.818Z,99645.11
2018-12-08T17:24:07.368Z,99642.30
2018-12-08T17:26:37.013Z,99631.93
2018-12-08T17:29:08.152Z,99624.03
2018-12-08T17:31:38.502Z,99613.84
2018-12-08T17:34:09.624Z,99620.58
2018-12-08T17:36:40.812Z,99598.97
2018-12-08T17:39:10.464Z,99593.70
2018-12-08T17:41:42.808Z,99592.30
2018-12-08T17:44:12.929Z,99589.05
2018-12-08T17:46:43.462Z,99588.73
2018-12-08T17:49:14.368Z,99583.38
2018-12-08T17:51:46.590Z,99568.63
2018-12-08T17:54:20.738Z,99560.45
2018-12-08T17:56:51.485Z,99551.67
2018-12-08T17:59:22.246Z,99540.78
2018-12-08T18:01:53.973Z,99531.07
2018-12-08T18:04:25.095Z,99524.49
2018-12-08T18:06:55.117Z,99509.85
2018-12-08T18:09:24.398Z,99504.59
2018-12-08T18:11:54.852Z,99497.16
2018-12-08T18:14:24.964Z,99492.30
2018-12-08T18:16:54.395Z,99494.92
2018-12-08T18:19:24.539Z,99484.86
2018-12-08T18:21:54.035Z,99476.95
2018-12-08T18:24:26.388Z,99469.23
2018-12-08T18:26:55.738Z,99467.19
2018-12-08T18:29:25.877Z,99462.02
2018-12-08T18:31:55.603Z,99457.21
2018-12-08T18:34:24.998Z,99455.59
2018-12-08T18:36:55.971Z,99453.32
2018-12-08T18:39:25.735Z,99437.91
2018-12-08T18:41:55.651Z,99423.44
2018-12-08T18:44:25.708Z,99412.73
2018-12-08T18:46:55.904Z,99402.57
2018-12-08T18:49:25.173Z,99407.64
2018-12-08T18:51:56.140Z,99389.12
2018-12-08T18:54:26.823Z,99389.52
2018-12-08T18:56:56.534Z,99388.56
2018-12-08T18:59:28.374Z,99378.42
2018-12-08T19:01:58.574Z,99377.67
2018-12-08T19:04:29.592Z,99372.66
2018-12-08T19:07:00.470Z,99354.53
2018-12-08T19:09:31.194Z,99336.61
2018-12-08T19:12:03.049Z,99320.72
2018-12-08T19:14:32.849Z,99319.23
2018-12-08T19:17:03.202Z,99307.89
2018-12-08T19:19:33.043Z,99294.92
2018-12-08T19:22:09.735Z,99292.20
2018-12-08T19:24:41.105Z,99277.63
2018-12-08T19:27:12.823Z,99255.42
2018-12-08T19:29:42.806Z,99265.59
2018-12-08T19:32:12.398Z,99251.94
2018-12-08T19:34:43.122Z,99236.30
2018-12-08T19:37:13.410Z,99222.33
2018-12-08T19:39:43.127Z,99219.09
2018-12-08T19:42:13.616Z,99209.13
2018-12-08T19:44:45.679Z,99195.91
2018-12-08T19:47:15.107Z,99190.91
2018-12-08T19:49:45.205Z,99182.64
2018-12-08T19:52:14.628Z,99179.70
2018-12-08T19:54:43.903Z,99179.09
2018-12-08T19:57:13.327Z,99175.51
2018-12-08T19:59:42.759Z,99166.55
2018-12-08T20:02:13.032Z,99166.86
2018-12-08T20:04:43.015Z,99142.91
2018-12-08T20:07:12.891Z,99154.09
2018-12-08T20:09:42.153Z,99147.50
2018-12-08T20:12:12.531Z,99132.13
2018-12-08T20:14:42.191Z,99135.99
2018-12-08T20:17:11.938Z,99124.46
2018-12-08T20:19:42.102Z,99114.22
2018-12-08T20:22:12.075Z,99103.74
2018-12-08T20:24:42.382Z,99075.69
2018-12-08T20:27:11.670Z,99068.64
2018-12-08T20:29:42.851Z,99048.55
2018-12-08T20:32:14.309Z,99046.59
2018-12-08T20:34:43.910Z,99036.06
2018-12-08T20:37:15.379Z,99031.61
2018-12-08T20:39:45.327Z,99032.36
2018-12-08T20:42:17.298Z,99017.20
2018-12-08T20:44:49.238Z,99021.64
2018-12-08T20:47:19.347Z,99007.80
2018-12-08T20:49:48.907Z,99005.58
2018-12-08T20:52:18.316Z,99001.20
2018-12-08T20:54:51.385Z,99007.12
2018-12-08T20:57:23.585Z,98988.33
2018-12-08T20:59:53.067Z,98990.66
2018-12-08T21:02:28.903Z,98990.77
2018-12-08T21:05:01.927Z,98983.03
2018-12-08T21:07:34.237Z,98995.18
2018-12-08T21:10:08.859Z,99000.14
2018-12-08T21:12:39.585Z,99002.44
2018-12-08T21:15:11.749Z,98988.81
2018-12-08T21:17:42.218Z,98999.53
2018-12-08T21:20:11.647Z,99002.91
2018-12-08T21:22:42.509Z,98997.23
2018-12-08T21:25:13.202Z,98994.02
2018-12-08T21:27:42.567Z,98991.22
2018-12-08T21:30:13.306Z,98978.55
2018-12-08T21:32:55.082Z,98984.55
2018-12-08T21:35:25.199Z,98991.79
2018-12-08T21:37:55.500Z,98984.62
2018-12-08T21:40:28.658Z,98983.66
2018-12-08T21:42:58.330Z,98999.62
2018-12-08T21:45:28.745Z,98995.57
2018-12-08T21:47:59.317Z,98995.84
2018-12-08T21:50:30.081Z,98989.84
2018-12-08T21:52:59.451Z,98985.88
2018-12-08T21:55:31.382Z,98976.42
2018-12-08T21:58:01.432Z,98965.17
2018-12-08T22:00:33.162Z,98959.01
2018-12-08T22:03:03.280Z,98987.59
2018-12-08T22:05:33.309Z,98968.47
2018-12-08T22:08:05.616Z,98956.66
2018-12-08T22:10:35.850Z,98960.72
2018-12-08T22:13:08.649Z,98965.99
2018-12-08T22:15:42.790Z,98970.22
2018-12-08T22:18:13.034Z,98944.00
2018-12-08T22:20:47.612Z,98955.74
2018-12-08T22:23:17.397Z,98956.61
2018-12-08T22:25:46.808Z,98964.39
2018-12-08T22:28:16.052Z,98965.70
2018-12-08T22:30:45.722Z,98948.24
2018-12-08T22:33:14.950Z,98960.49
2018-12-08T22:35:44.472Z,98966.98
2018-12-08T22:38:15.771Z,98957.98
2018-12-08T22:40:45.122Z,98949.53
2018-12-08T22:43:15.418Z,98949.61
2018-12-08T22:45:44.717Z,98941.08
2018-12-08T22:48:13.956Z,98951.73
2018-12-08T22:50:43.527Z,98950.58
2018-12-08T22:53:12.806Z,98946.28
2018-12-08T22:55:42.093Z,98949.19
2018-12-08T22:58:12.839Z,98961.88
2018-12-08T23:00:46.714Z,98948.57
2018-12-08T23:03:17.064Z,98948.34
2018-12-08T23:05:46.248Z,98934.42
2018-12-08T23:08:15.624Z,98948.80
2018-12-08T23:10:45.083Z,98939.10
2018-12-08T23:13:14.360Z,98938.48
2018-12-08T23:15:45.586Z,98939.65
2018-12-08T23:18:15.879Z,98931.55
2018-12-08T23:20:45.558Z,98924.48
2018-12-08T23:23:15.251Z,98934.65
2018-12-08T23:25:44.600Z,98926.63
2018-12-08T23:28:14.107Z,98931.20
2018-12-08T23:30:43.754Z,98919.88
2018-12-08T23:33:13.317Z,98917.47
2018-12-08T23:35:42.805Z,98912.81
2018-12-08T23:38:12.319Z,98921.00
2018-12-08T23:40:42.654Z,98918.44
2018-12-08T23:43:11.964Z,98915.33
2018-12-08T23:45:41.365Z,98913.91
2018-12-08T23:48:11.387Z,98924.52
2018-12-08T23:50:41.645Z,98914.59
2018-12-08T23:53:11.079Z,98920.67
2018-12-08T23:55:41.368Z,98922.97
2018-12-08T23:58:11.306Z,98922.22
